Campinorte, Brazil
Current Conditions -  °F | °C
As of 3:00 AM on Sunday 21 Dec 2014 (Local Time) from SBAN Reporting Station
Broken Clouds Broken Clouds  
Wind Chill: 66°   Ceiling: 500
Heat Index: 66°   Visibility: 5mi
Dew Point: 63°   Wind: 7mph
Humidity: 88%   Direction: 360°N
Pressure: 30.03"   Gusts: NA
Location:  14.33°S, 49.13°W
Report Text: SBAN 210500Z 36006KT 8000 BKN005 BKN100 19/17 Q1017
Loading
Personal Weather Stations






























Interactive Weather Map New forecast layout! Learn more

10-Day Weather Forecast

Advertisements
Track Severe Weather on mobile